| time (UTC) | temp F | wind direction | speed MPH | gust MPH | rain 1hr in | rain 24hr in | rain mn in | humidity % | barometer mb |
| 20260904093432 | 66 | 318 | 0.0 | 0.0 | 0.00 | 0.25 | 0.25 | 99 | 1014.1 |
| 20260904092927 | 66 | 318 | 0.0 | 0.0 | 0.00 | 0.25 | 0.25 | 99 | 1013.9 |
| 20260904092424 | 66 | 318 | 0.0 | 0.0 | 0.00 | 0.25 | 0.25 | 99 | 1013.9 |
| 20260904091919 | 66 | 313 | 0.0 | 0.0 | 0.00 | 0.25 | 0.25 | 99 | 1013.9 |
| 20260904091414 | 66 | 312 | 0.0 | 0.0 | 0.00 | 0.25 | 0.25 | 99 | 1014.0 |
| 20260904090903 | 66 | 309 | 0.0 | 0.0 | 0.00 | 0.25 | 0.25 | 99 | 1013.9 |
| 20260904090359 | 66 | 311 | 0.0 | 0.0 | 0.00 | 0.25 | 0.25 | 99 | 1013.8 |
| 20260904085854 | 66 | 313 | 0.0 | 0.0 | 0.00 | 0.25 | 0.25 | 99 | 1013.9 |
| 20260904085350 | 66 | 312 | 0.0 | 0.0 | 0.00 | 0.25 | 0.25 | 99 | 1013.9 |
| 20260904084850 | 66 | 312 | 0.0 | 0.0 | 0.00 | 0.25 | 0.25 | 99 | 1013.5 |
| 20260904084346 | 66 | 312 | 0.0 | 0.0 | 0.00 | 0.25 | 0.25 | 99 | 1013.7 |
| 20260904083841 | 66 | 312 | 0.0 | 0.0 | 0.00 | 0.25 | 0.25 | 99 | 1013.5 |
| 20260904083338 | 66 | 312 | 0.0 | 0.0 | 0.00 | 0.25 | 0.25 | 99 | 1013.3 |
| 20260904082833 | 66 | 312 | 0.0 | 0.0 | 0.00 | 0.25 | 0.25 | 99 | 1013.2 |
| 20260904082327 | 66 | 312 | 0.0 | 0.0 | 0.00 | 0.25 | 0.25 | 99 | 1013.1 |
| 20260904081823 | 66 | 307 | 0.0 | 0.0 | 0.00 | 0.25 | 0.25 | 99 | 1013.2 |
| 20260904081318 | 66 | 317 | 0.0 | 0.0 | 0.00 | 0.25 | 0.25 | 99 | 1013.2 |
| 20260904080814 | 66 | 316 | 0.0 | 0.0 | 0.00 | 0.25 | 0.25 | 99 | 1013.3 |
| 20260904080309 | 66 | 318 | 0.0 | 0.0 | 0.07 | 0.25 | 0.25 | 99 | 1012.8 |
| 20260904075800 | 67 | 325 | 0.0 | 0.0 | 0.07 | 0.25 | 0.25 | 99 | 1012.8 |
| 20260904075300 | 67 | 324 | 0.0 | 0.0 | 0.05 | 0.24 | 0.24 | 99 | 1013.3 |
| 20260904074753 | 67 | 313 | 0.0 | 0.0 | 0.12 | 0.24 | 0.24 | 99 | 1013.2 |
| 20260904074248 | 67 | 311 | 0.0 | 0.0 | 0.19 | 0.23 | 0.23 | 99 | 1013.2 |
| 20260904073743 | 67 | 312 | 0.0 | 0.0 | 0.19 | 0.22 | 0.22 | 99 | 1013.4 |
| 20260904073239 | 67 | 320 | 0.0 | 0.0 | 0.12 | 0.20 | 0.20 | 99 | 1013.5 |
| 20260904072736 | 67 | 299 | 1.0 | 2.0 | 0.12 | 0.19 | 0.19 | 99 | 1013.8 |
| 20260904072230 | 67 | 272 | 3.0 | 4.0 | 0.12 | 0.18 | 0.18 | 99 | 1014.1 |
| 20260904071726 | 69 | 243 | 6.0 | 7.0 | 0.90 | 0.17 | 0.17 | 99 | 1014.4 |
| 20260904071225 | 69 | 292 | 2.0 | 2.0 | 0.85 | 0.16 | 0.16 | 99 | 1014.8 |
| 20260904070720 | 69 | 287 | 3.0 | 3.0 | 0.12 | 0.03 | 0.03 | 99 | 1015.3 |
| 20260904070219 | 69 | 322 | 0.0 | 0.0 | 0.12 | 0.02 | 0.02 | 99 | 1014.1 |
| 20260904065714 | 69 | 326 | 0.0 | 0.0 | 0.07 | 0.01 | 0.01 | 99 | 1013.9 |
| 20260904065211 | 69 | 327 | 0.0 | 0.0 | 0.00 | 0.00 | 0.00 | 99 | 1014.0 |
| 20260904064710 | 69 | 327 | 0.0 | 0.0 | 0.00 | 0.00 | 0.00 | 99 | 1014.2 |
| 20260904064206 | 69 | 327 | 0.0 | 0.0 | 0.00 | 0.00 | 0.00 | 99 | 1014.2 |
| 20260904063703 | 69 | 327 | 0.0 | 0.0 | 0.00 | 0.00 | 0.00 | 99 | 1014.0 |
| 20260904063158 | 69 | 327 | 0.0 | 0.0 | 0.00 | 0.00 | 0.00 | 99 | 1014.1 |
| 20260904062654 | 69 | 327 | 0.0 | 0.0 | 0.00 | 0.00 | 0.00 | 99 | 1014.0 |
| 20260904062149 | 69 | 331 | 0.0 | 0.0 | 0.00 | 0.00 | 0.00 | 99 | 1013.8 |
| 20260904061645 | 70 | 339 | 0.0 | 0.0 | 0.00 | 0.00 | 0.00 | 99 | 1013.9 |
| 20260904061141 | 69 | 331 | 0.0 | 0.0 | 0.00 | 0.00 | 0.00 | 99 | 1014.1 |
| 20260904060637 | 69 | 337 | 0.0 | 0.0 | 0.00 | 0.00 | 0.00 | 99 | 1014.1 |
| 20260904060133 | 69 | 337 | 0.0 | 0.0 | 0.00 | 0.00 | 0.00 | 99 | 1014.1 |
| 20260904055633 | 69 | 337 | 0.0 | 0.0 | 0.00 | 0.00 | 0.00 | 99 | 1014.4 |
| 20260904055128 | 69 | 329 | 0.0 | 0.0 | 0.00 | 0.00 | 0.00 | 99 | 1014.3 |
| 20260904054623 | 69 | 327 | 0.0 | 0.0 | 0.00 | 0.00 | 0.00 | 99 | 1014.5 |
| 20260904054120 | 69 | 327 | 0.0 | 0.0 | 0.00 | 0.00 | 0.00 | 99 | 1014.3 |
| 20260904053614 | 69 | 327 | 0.0 | 0.0 | 0.00 | 0.00 | 0.00 | 99 | 1014.6 |
| 20260904053109 | 69 | 327 | 0.0 | 0.0 | 0.00 | 0.00 | 0.00 | 99 | 1014.8 |
| 20260904052606 | 69 | 327 | 0.0 | 0.0 | 0.00 | 0.00 | 0.00 | 99 | 1014.8 |
| 20260904052101 | 69 | 327 | 0.0 | 0.0 | 0.00 | 0.00 | 0.00 | 99 | 1014.6 |
| 20260904051558 | 69 | 326 | 0.0 | 0.0 | 0.00 | 0.00 | 0.00 | 99 | 1014.8 |
| 20260904051056 | 69 | 326 | 0.0 | 0.0 | 0.00 | 0.00 | 0.00 | 99 | 1014.8 |
| 20260904050553 | 69 | 327 | 0.0 | 0.0 | 0.00 | 0.00 | 0.00 | 99 | 1014.6 |
| 20260904050049 | 69 | 327 | 0.0 | 0.0 | 0.00 | 0.00 | 0.00 | 99 | 1014.6 |
| 20260904045544 | 69 | 327 | 0.0 | 0.0 | 0.00 | 0.00 | 0.00 | 99 | 1014.9 |
| 20260904045044 | 69 | 326 | 0.0 | 0.0 | 0.00 | 0.00 | 0.00 | 99 | 1014.6 |
| 20260904044539 | 69 | 326 | 0.0 | 0.0 | 0.00 | 0.00 | 0.00 | 99 | 1015.0 |
| 20260904044036 | 69 | 326 | 0.0 | 0.0 | 0.00 | 0.00 | 0.00 | 99 | 1014.9 |
| 20260904043532 | 69 | 326 | 0.0 | 0.0 | 0.00 | 0.00 | 0.00 | 99 | 1014.9 |
| 20260904043027 | 69 | 326 | 0.0 | 0.0 | 0.00 | 0.00 | 0.00 | 99 | 1015.3 |
| 20260904042523 | 69 | 326 | 0.0 | 0.0 | 0.00 | 0.00 | 0.00 | 99 | 1015.1 |
| 20260904042019 | 69 | 332 | 0.0 | 0.0 | 0.00 | 0.00 | 0.00 | 99 | 1015.1 |
| 20260904041509 | 69 | 332 | 0.0 | 0.0 | 0.00 | 0.00 | 0.00 | 99 | 1015.3 |
| 20260904041005 | 70 | 339 | 0.0 | 0.0 | 0.00 | 0.00 | 0.00 | 99 | 1015.2 |
| 20260904040459 | 70 | 345 | 0.0 | 0.0 | 0.00 | 0.00 | 0.00 | 99 | 1015.2 |
| 20260904035955 | 70 | 338 | 0.0 | 0.0 | 0.00 | 0.41 | 0.41 | 99 | 1015.2 |
| 20260904035451 | 70 | 330 | 0.0 | 0.0 | 0.00 | 0.41 | 0.41 | 99 | 1015.4 |
| 20260904034950 | 70 | 330 | 0.0 | 0.0 | 0.00 | 0.41 | 0.41 | 99 | 1015.3 |
| 20260904034445 | 70 | 332 | 0.0 | 0.0 | 0.00 | 0.41 | 0.41 | 99 | 1015.3 |
| 20260904033941 | 70 | 330 | 0.0 | 0.0 | 0.00 | 0.41 | 0.41 | 99 | 1015.1 |
| 20260904033437 | 70 | 336 | 0.0 | 0.0 | 0.00 | 0.41 | 0.41 | 99 | 1015.0 |
| 20260904032933 | 70 | 345 | 0.0 | 0.0 | 0.00 | 0.41 | 0.41 | 99 | 1015.1 |
| 20260904032428 | 71 | 341 | 0.0 | 0.0 | 0.00 | 0.41 | 0.41 | 99 | 1015.2 |
| 20260904031928 | 71 | 349 | 0.0 | 0.0 | 0.00 | 0.41 | 0.41 | 99 | 1015.1 |
| 20260904031423 | 70 | 335 | 0.0 | 0.0 | 0.00 | 0.41 | 0.41 | 99 | 1015.5 |
| 20260904030919 | 70 | 347 | 0.0 | 0.0 | 0.00 | 0.41 | 0.41 | 99 | 1015.5 |
| 20260904030419 | 70 | 331 | 0.0 | 0.0 | 0.00 | 0.41 | 0.41 | 99 | 1015.6 |
| 20260904025915 | 70 | 330 | 0.0 | 0.0 | 0.00 | 0.41 | 0.41 | 99 | 1015.6 |
| 20260904025411 | 70 | 326 | 0.0 | 0.0 | 0.00 | 0.41 | 0.41 | 99 | 1015.8 |
| 20260904024905 | 70 | 325 | 0.0 | 0.0 | 0.00 | 0.41 | 0.41 | 99 | 1015.8 |
| 20260904024400 | 70 | 325 | 0.0 | 0.0 | 0.00 | 0.41 | 0.41 | 99 | 1015.9 |
| 20260904023856 | 70 | 325 | 0.0 | 0.0 | 0.00 | 0.41 | 0.41 | 99 | 1015.9 |
| 20260904023352 | 70 | 325 | 0.0 | 0.0 | 0.00 | 0.41 | 0.41 | 99 | 1016.0 |
| 20260904022851 | 70 | 329 | 0.0 | 0.0 | 0.00 | 0.41 | 0.41 | 99 | 1015.6 |
| 20260904022348 | 70 | 327 | 0.0 | 0.0 | 0.00 | 0.41 | 0.41 | 99 | 1015.7 |
| 20260904021844 | 70 | 330 | 0.0 | 0.0 | 0.00 | 0.41 | 0.41 | 99 | 1015.5 |
| 20260904021339 | 71 | 331 | 0.0 | 0.0 | 0.00 | 0.41 | 0.41 | 99 | 1015.8 |
| 20260904020835 | 71 | 330 | 0.0 | 0.0 | 0.00 | 0.41 | 0.41 | 99 | 1015.9 |
| 20260904020329 | 71 | 326 | 0.0 | 0.0 | 0.00 | 0.41 | 0.41 | 99 | 1016.0 |
| 20260904015828 | 70 | 326 | 0.0 | 0.0 | 0.00 | 0.41 | 0.41 | 99 | 1016.0 |
| 20260904015324 | 70 | 326 | 0.0 | 0.0 | 0.00 | 0.41 | 0.41 | 99 | 1016.2 |
| 20260904014822 | 70 | 326 | 0.0 | 0.0 | 0.00 | 0.41 | 0.41 | 99 | 1016.1 |
| 20260904014317 | 71 | 327 | 0.0 | 0.0 | 0.00 | 0.41 | 0.41 | 99 | 1016.1 |
| 20260904013813 | 71 | 327 | 0.0 | 0.0 | 0.00 | 0.41 | 0.41 | 99 | 1016.0 |
| 20260904013309 | 71 | 325 | 0.0 | 0.0 | 0.00 | 0.41 | 0.41 | 99 | 1016.1 |
| 20260904012805 | 71 | 330 | 0.0 | 0.0 | 0.00 | 0.41 | 0.41 | 99 | 1016.1 |
| 20260904012259 | 71 | 346 | 0.0 | 0.0 | 0.00 | 0.41 | 0.41 | 99 | 1016.0 |
| 20260904011758 | 71 | 342 | 0.0 | 0.0 | 0.00 | 0.41 | 0.41 | 99 | 1016.0 |
| 20260904011254 | 71 | 328 | 0.0 | 0.0 | 0.00 | 0.41 | 0.41 | 99 | 1015.8 |
| 20260904010754 | 71 | 328 | 0.0 | 0.0 | 0.00 | 0.41 | 0.41 | 99 | 1016.1 |
| 20260904010250 | 71 | 328 | 0.0 | 0.0 | 0.00 | 0.41 | 0.41 | 99 | 1016.1 |
| 20260904005745 | 71 | 332 | 0.0 | 0.0 | 0.00 | 0.41 | 0.41 | 99 | 1015.9 |
| 20260904005241 | 71 | 332 | 0.0 | 0.0 | 0.00 | 0.41 | 0.41 | 99 | 1016.2 |
| 20260904004736 | 71 | 333 | 0.0 | 0.0 | 0.00 | 0.41 | 0.41 | 99 | 1016.1 |
| 20260904004232 | 71 | 334 | 0.0 | 0.0 | 0.00 | 0.41 | 0.41 | 99 | 1015.9 |
| 20260904003726 | 71 | 336 | 0.0 | 0.0 | 0.00 | 0.41 | 0.41 | 99 | 1015.9 |
| 20260904003222 | 71 | 330 | 0.0 | 0.0 | 0.00 | 0.41 | 0.41 | 99 | 1016.0 |
| 20260904002718 | 71 | 330 | 0.0 | 0.0 | 0.00 | 0.41 | 0.41 | 99 | 1015.9 |
| 20260904002214 | 71 | 330 | 0.0 | 0.0 | 0.00 | 0.41 | 0.41 | 99 | 1015.9 |
| 20260904001709 | 71 | 326 | 0.0 | 0.0 | 0.00 | 0.41 | 0.41 | 99 | 1015.9 |
| 20260904001208 | 71 | 326 | 0.0 | 0.0 | 0.00 | 0.41 | 0.41 | 99 | 1015.9 |
| 20260904000703 | 72 | 333 | 0.0 | 0.0 | 0.00 | 0.41 | 0.41 | 99 | 1015.8 |
| 20260904000158 | 72 | 333 | 0.0 | 0.0 | 0.00 | 0.41 | 0.41 | 99 | 1015.9 |
| 20260903235657 | 72 | 327 | 0.0 | 0.0 | 0.00 | 0.41 | 0.41 | 99 | 1015.9 |
| 20260903235154 | 72 | 330 | 0.0 | 0.0 | 0.00 | 0.41 | 0.41 | 99 | 1015.6 |
| 20260903234648 | 72 | 329 | 0.0 | 0.0 | 0.00 | 0.41 | 0.41 | 99 | 1015.3 |
| 20260903234144 | 72 | 336 | 0.0 | 0.0 | 0.00 | 0.41 | 0.41 | 99 | 1015.4 |
| 20260903233640 | 72 | 328 | 0.0 | 0.0 | 0.00 | 0.41 | 0.41 | 99 | 1015.5 |
| 20260903233137 | 72 | 330 | 0.0 | 0.0 | 0.00 | 0.41 | 0.41 | 98 | 1015.4 |
| 20260903232630 | 72 | 329 | 0.0 | 0.0 | 0.00 | 0.41 | 0.41 | 98 | 1015.8 |
| 20260903232126 | 73 | 327 | 0.0 | 0.0 | 0.00 | 0.41 | 0.41 | 98 | 1015.5 |
| 20260903231615 | 73 | 337 | 0.0 | 0.0 | 0.00 | 0.41 | 0.41 | 98 | 1015.3 |
| 20260903231114 | 73 | 337 | 0.0 | 0.0 | 0.00 | 0.41 | 0.41 | 97 | 1015.2 |
| 20260903230610 | 73 | 337 | 0.0 | 0.0 | 0.00 | 0.41 | 0.41 | 97 | 1015.4 |
| 20260903230109 | 73 | 341 | 0.0 | 0.0 | 0.00 | 0.41 | 0.41 | 97 | 1015.5 |
| 20260903225607 | 74 | 336 | 0.0 | 0.0 | 0.00 | 0.41 | 0.41 | 96 | 1015.4 |
| 20260903225103 | 74 | 337 | 0.0 | 0.0 | 0.00 | 0.41 | 0.41 | 96 | 1015.3 |
| 20260903224559 | 74 | 329 | 0.0 | 0.0 | 0.00 | 0.41 | 0.41 | 96 | 1015.4 |
| 20260903224055 | 74 | 341 | 0.0 | 0.0 | 0.00 | 0.41 | 0.41 | 96 | 1015.4 |
| 20260903223555 | 75 | 330 | 0.0 | 0.0 | 0.00 | 0.41 | 0.41 | 95 | 1015.5 |
| 20260903223053 | 75 | 351 | 0.0 | 0.0 | 0.00 | 0.41 | 0.41 | 95 | 1015.4 |
| 20260903222548 | 75 | 337 | 0.0 | 0.0 | 0.00 | 0.41 | 0.41 | 95 | 1015.4 |
| 20260903222047 | 76 | 336 | 0.0 | 0.0 | 0.00 | 0.41 | 0.41 | 94 | 1015.5 |
| 20260903221543 | 76 | 340 | 0.0 | 0.0 | 0.00 | 0.41 | 0.41 | 93 | 1015.5 |
| 20260903221040 | 76 | 342 | 0.0 | 0.0 | 0.00 | 0.41 | 0.41 | 93 | 1015.8 |
| 20260903220539 | 76 | 346 | 0.0 | 0.0 | 0.00 | 0.41 | 0.41 | 93 | 1015.7 |
| 20260903220034 | 76 | 333 | 0.0 | 0.0 | 0.00 | 0.41 | 0.41 | 93 | 1015.6 |
| 20260903215533 | 76 | 330 | 0.0 | 0.0 | 0.00 | 0.41 | 0.41 | 91 | 1015.6 |
| 20260903215033 | 77 | 327 | 0.0 | 0.0 | 0.00 | 0.41 | 0.41 | 90 | 1015.7 |
| 20260903214532 | 77 | 314 | 0.0 | 0.0 | 0.00 | 0.41 | 0.41 | 88 | 1015.6 |
| 20260903214028 | 78 | 312 | 0.0 | 0.0 | 0.00 | 0.41 | 0.41 | 85 | 1015.8 |
| 20260903213523 | 78 | 316 | 0.0 | 0.0 | 0.00 | 0.41 | 0.41 | 85 | 1015.6 |
| 20260903213019 | 78 | 323 | 0.0 | 0.0 | 0.00 | 0.41 | 0.41 | 84 | 1015.6 |
| 20260903212514 | 78 | 312 | 0.0 | 0.0 | 0.00 | 0.41 | 0.41 | 84 | 1015.3 |
| 20260903212015 | 78 | 300 | 1.0 | 2.0 | 0.00 | 0.41 | 0.41 | 83 | 1015.3 |
| 20260903211510 | 79 | 309 | 0.0 | 1.0 | 0.00 | 0.41 | 0.41 | 83 | 1015.3 |
| 20260903211006 | 79 | 310 | 0.0 | 0.0 | 0.00 | 0.41 | 0.41 | 84 | 1015.4 |
| 20260903210501 | 79 | 312 | 0.0 | 0.0 | 0.00 | 0.41 | 0.41 | 83 | 1015.3 |
| 20260903205956 | 79 | 309 | 1.0 | 1.0 | 0.00 | 0.41 | 0.41 | 84 | 1015.4 |
| 20260903205450 | 80 | 311 | 1.0 | 1.0 | 0.00 | 0.41 | 0.41 | 84 | 1015.4 |
| 20260903204944 | 80 | 299 | 1.0 | 2.0 | 0.00 | 0.41 | 0.41 | 82 | 1015.5 |
| 20260903204441 | 79 | 307 | 1.0 | 1.0 | 0.00 | 0.41 | 0.41 | 86 | 1015.2 |
| 20260903203936 | 79 | 314 | 0.0 | 1.0 | 0.00 | 0.41 | 0.41 | 83 | 1015.4 |
| 20260903203431 | 78 | 308 | 1.0 | 1.0 | 0.00 | 0.41 | 0.41 | 89 | 1015.6 |
| 20260903202925 | 78 | 324 | 0.0 | 0.0 | 0.00 | 0.41 | 0.41 | 87 | 1015.4 |
| 20260903202421 | 78 | 312 | 0.0 | 0.0 | 0.00 | 0.41 | 0.41 | 87 | 1015.5 |
| 20260903201920 | 79 | 316 | 0.0 | 0.0 | 0.00 | 0.41 | 0.41 | 88 | 1015.6 |
| 20260903201411 | 81 | 307 | 1.0 | 1.0 | 0.00 | 0.41 | 0.41 | 84 | 1015.8 |
| 20260903200910 | 81 | 296 | 0.0 | 0.0 | 0.00 | 0.41 | 0.41 | 84 | 1015.6 |
| 20260903200405 | 80 | 322 | 0.0 | 0.0 | 0.00 | 0.41 | 0.41 | 84 | 1015.6 |
| 20260903195900 | 78 | 314 | 0.0 | 0.0 | 0.00 | 0.41 | 0.41 | 90 | 1015.6 |
| 20260903195356 | 78 | 313 | 0.0 | 0.0 | 0.00 | 0.41 | 0.41 | 88 | 1015.7 |
| 20260903194850 | 78 | 312 | 0.0 | 0.0 | 0.00 | 0.41 | 0.41 | 89 | 1016.0 |
| 20260903194346 | 78 | 319 | 0.0 | 0.0 | 0.00 | 0.41 | 0.41 | 89 | 1015.7 |
| 20260903193841 | 77 | 326 | 0.0 | 0.0 | 0.00 | 0.41 | 0.41 | 88 | 1015.4 |
| 20260903193338 | 77 | 318 | 0.0 | 0.0 | 0.00 | 0.41 | 0.41 | 89 | 1015.9 |
| 20260903192833 | 77 | 324 | 0.0 | 0.0 | 0.00 | 0.41 | 0.41 | 91 | 1015.8 |
| 20260903192328 | 78 | 324 | 0.0 | 0.0 | 0.00 | 0.41 | 0.41 | 89 | 1016.2 |
| 20260903191825 | 78 | 316 | 0.0 | 0.0 | 0.00 | 0.41 | 0.41 | 87 | 1015.7 |
| 20260903191320 | 78 | 315 | 0.0 | 0.0 | 0.00 | 0.41 | 0.41 | 87 | 1016.0 |
| 20260903190819 | 78 | 311 | 0.0 | 0.0 | 0.00 | 0.41 | 0.41 | 86 | 1016.1 |
| 20260903190314 | 78 | 312 | 1.0 | 1.0 | 0.00 | 0.41 | 0.41 | 86 | 1016.0 |
| 20260903185808 | 78 | 309 | 0.0 | 0.0 | 0.00 | 0.41 | 0.41 | 87 | 1016.2 |
| 20260903185306 | 77 | 299 | 1.0 | 1.0 | 0.00 | 0.41 | 0.41 | 86 | 1016.2 |
| 20260903184759 | 77 | 310 | 0.0 | 0.0 | 0.00 | 0.41 | 0.41 | 87 | 1016.3 |
| 20260903184255 | 78 | 316 | 0.0 | 1.0 | 0.00 | 0.41 | 0.41 | 87 | 1016.1 |
| 20260903183744 | 77 | 307 | 0.0 | 1.0 | 0.00 | 0.41 | 0.41 | 86 | 1016.3 |
| 20260903183239 | 77 | 306 | 1.0 | 1.0 | 0.00 | 0.41 | 0.41 | 86 | 1016.3 |
| 20260903182738 | 77 | 316 | 0.0 | 0.0 | 0.00 | 0.41 | 0.41 | 87 | 1016.4 |
| 20260903182233 | 77 | 316 | 0.0 | 0.0 | 0.00 | 0.41 | 0.41 | 88 | 1016.3 |
| 20260903181732 | 78 | 311 | 1.0 | 1.0 | 0.00 | 0.41 | 0.41 | 86 | 1016.0 |
| 20260903181227 | 78 | 312 | 0.0 | 1.0 | 0.00 | 0.41 | 0.41 | 87 | 1016.2 |
| 20260903180722 | 77 | 303 | 1.0 | 1.0 | 0.00 | 0.41 | 0.41 | 87 | 1016.2 |
| 20260903180221 | 77 | 314 | 0.0 | 0.0 | 0.00 | 0.41 | 0.41 | 87 | 1016.4 |
| 20260903175721 | 78 | 310 | 1.0 | 1.0 | 0.00 | 0.41 | 0.41 | 87 | 1016.6 |
| 20260903175214 | 78 | 297 | 0.0 | 0.0 | 0.00 | 0.41 | 0.41 | 87 | 1016.2 |
| 20260903174708 | 77 | 305 | 1.0 | 1.0 | 0.00 | 0.41 | 0.41 | 86 | 1016.3 |
| 20260903174204 | 77 | 304 | 1.0 | 1.0 | 0.00 | 0.41 | 0.41 | 88 | 1016.4 |
| 20260903173659 | 77 | 303 | 2.0 | 2.0 | 0.00 | 0.41 | 0.41 | 87 | 1016.6 |
| 20260903173155 | 77 | 294 | 1.0 | 1.0 | 0.00 | 0.41 | 0.41 | 86 | 1016.3 |
| 20260903172649 | 76 | 310 | 2.0 | 2.0 | 0.00 | 0.41 | 0.41 | 88 | 1016.7 |
| 20260903172145 | 75 | 300 | 2.0 | 2.0 | 0.00 | 0.41 | 0.41 | 89 | 1016.6 |
| 20260903171644 | 75 | 306 | 0.0 | 0.0 | 0.00 | 0.41 | 0.41 | 89 | 1016.9 |
| 20260903171141 | 75 | 305 | 2.0 | 2.0 | 0.00 | 0.41 | 0.41 | 88 | 1017.1 |
| 20260903170639 | 76 | 294 | 2.0 | 2.0 | 0.00 | 0.41 | 0.41 | 87 | 1016.9 |
| 20260903170135 | 76 | 306 | 2.0 | 2.0 | 0.00 | 0.41 | 0.41 | 87 | 1016.8 |
| 20260903165633 | 76 | 300 | 1.0 | 1.0 | 0.00 | 0.41 | 0.41 | 87 | 1016.9 |
| 20260903165127 | 76 | 283 | 2.0 | 3.0 | 0.00 | 0.41 | 0.41 | 86 | 1016.8 |
| 20260903164616 | 75 | 261 | 3.0 | 3.0 | 0.00 | 0.41 | 0.41 | 89 | 1016.9 |
| 20260903164112 | 75 | 283 | 2.0 | 3.0 | 0.00 | 0.41 | 0.41 | 88 | 1016.7 |
| 20260903163607 | 75 | 298 | 1.0 | 1.0 | 0.00 | 0.41 | 0.41 | 88 | 1017.0 |
| 20260903163103 | 75 | 308 | 1.0 | 1.0 | 0.00 | 0.41 | 0.41 | 89 | 1017.0 |
| 20260903162559 | 75 | 310 | 2.0 | 2.0 | 0.00 | 0.41 | 0.41 | 88 | 1017.0 |
| 20260903162055 | 74 | 318 | 1.0 | 1.0 | 0.00 | 0.41 | 0.41 | 90 | 1016.8 |
| 20260903161550 | 74 | 284 | 2.0 | 4.0 | 0.00 | 0.41 | 0.41 | 90 | 1016.8 |
| 20260903161046 | 73 | 297 | 2.0 | 3.0 | 0.00 | 0.41 | 0.41 | 91 | 1017.0 |
| 20260903160545 | 73 | 296 | 1.0 | 2.0 | 0.00 | 0.41 | 0.41 | 91 | 1016.9 |
| 20260903160039 | 74 | 301 | 2.0 | 3.0 | 0.00 | 0.41 | 0.41 | 91 | 1017.1 |
| 20260903155538 | 74 | 311 | 0.0 | 1.0 | 0.00 | 0.41 | 0.41 | 91 | 1017.0 |
| 20260903155034 | 73 | 295 | 1.0 | 2.0 | 0.00 | 0.41 | 0.41 | 92 | 1017.4 |
| 20260903154530 | 73 | 270 | 2.0 | 2.0 | 0.00 | 0.41 | 0.41 | 93 | 1017.4 |
| 20260903154026 | 73 | 310 | 2.0 | 2.0 | 0.00 | 0.41 | 0.41 | 92 | 1017.2 |
| 20260903153521 | 73 | 305 | 2.0 | 2.0 | 0.00 | 0.41 | 0.41 | 93 | 1017.3 |
| 20260903153017 | 71 | 295 | 2.0 | 2.0 | 0.00 | 0.41 | 0.41 | 95 | 1017.4 |
| 20260903152512 | 71 | 304 | 1.0 | 2.0 | 0.00 | 0.41 | 0.41 | 97 | 1017.3 |
| 20260903152009 | 71 | 320 | 1.0 | 1.0 | 0.00 | 0.41 | 0.41 | 96 | 1017.5 |
| 20260903151507 | 71 | 308 | 1.0 | 1.0 | 0.00 | 0.41 | 0.41 | 98 | 1017.5 |
| 20260903151002 | 71 | 310 | 0.0 | 0.0 | 0.00 | 0.41 | 0.41 | 99 | 1017.6 |
| 20260903150457 | 70 | 320 | 1.0 | 1.0 | 0.00 | 0.41 | 0.41 | 99 | 1017.6 |
| 20260903145952 | 69 | 309 | 0.0 | 1.0 | 0.00 | 0.41 | 0.41 | 99 | 1017.6 |
| 20260903145447 | 69 | 319 | 2.0 | 2.0 | 0.00 | 0.41 | 0.41 | 99 | 1017.3 |
| 20260903144942 | 69 | 291 | 2.0 | 2.0 | 0.00 | 0.41 | 0.41 | 99 | 1017.5 |
| 20260903144441 | 68 | 314 | 0.0 | 1.0 | 0.00 | 0.41 | 0.41 | 99 | 1017.5 |
| 20260903143937 | 68 | 307 | 1.0 | 1.0 | 0.00 | 0.41 | 0.41 | 99 | 1017.7 |
| 20260903143434 | 68 | 312 | 1.0 | 1.0 | 0.00 | 0.41 | 0.41 | 99 | 1017.8 |
| 20260903142929 | 68 | 317 | 1.0 | 1.0 | 0.00 | 0.41 | 0.41 | 99 | 1017.7 |
| 20260903142424 | 68 | 318 | 0.0 | 0.0 | 0.00 | 0.41 | 0.41 | 99 | 1017.7 |
| 20260903141920 | 68 | 290 | 2.0 | 2.0 | 0.00 | 0.41 | 0.41 | 99 | 1017.8 |
| 20260903141410 | 68 | 296 | 2.0 | 2.0 | 0.00 | 0.41 | 0.41 | 99 | 1017.6 |
| 20260903140906 | 68 | 317 | 0.0 | 0.0 | 0.00 | 0.41 | 0.41 | 99 | 1017.7 |
| 20260903140401 | 68 | 303 | 0.0 | 0.0 | 0.00 | 0.41 | 0.41 | 99 | 1017.3 |
| 20260903135856 | 68 | 311 | 1.0 | 1.0 | 0.00 | 0.41 | 0.41 | 99 | 1017.6 |
| 20260903135352 | 68 | 323 | 0.0 | 0.0 | 0.00 | 0.41 | 0.41 | 99 | 1017.6 |
| 20260903134850 | 67 | 314 | 0.0 | 0.0 | 0.00 | 0.41 | 0.41 | 99 | 1017.5 |
| 20260903134346 | 67 | 321 | 0.0 | 0.0 | 0.00 | 0.41 | 0.41 | 99 | 1017.4 |
| 20260903133843 | 67 | 315 | 0.0 | 0.0 | 0.00 | 0.41 | 0.41 | 99 | 1017.8 |
| 20260903133340 | 67 | 321 | 0.0 | 0.0 | 0.00 | 0.41 | 0.41 | 99 | 1017.7 |
| 20260903132834 | 67 | 319 | 0.0 | 0.0 | 0.00 | 0.41 | 0.41 | 99 | 1017.9 |
| 20260903132330 | 66 | 318 | 0.0 | 0.0 | 0.00 | 0.41 | 0.41 | 99 | 1017.7 |
| 20260903131825 | 67 | 321 | 0.0 | 0.0 | 0.00 | 0.41 | 0.41 | 99 | 1017.6 |
| 20260903131324 | 67 | 312 | 0.0 | 0.0 | 0.00 | 0.41 | 0.41 | 99 | 1017.7 |
| 20260903130823 | 67 | 316 | 0.0 | 0.0 | 0.00 | 0.41 | 0.41 | 99 | 1017.8 |
| 20260903130318 | 67 | 319 | 0.0 | 0.0 | 0.00 | 0.41 | 0.41 | 99 | 1017.8 |
| 20260903125817 | 67 | 317 | 0.0 | 0.0 | 0.00 | 0.41 | 0.41 | 99 | 1017.7 |
| 20260903125313 | 67 | 324 | 0.0 | 0.0 | 0.00 | 0.41 | 0.41 | 99 | 1018.1 |
| 20260903124812 | 66 | 319 | 0.0 | 0.0 | 0.00 | 0.41 | 0.41 | 99 | 1018.2 |
| 20260903124308 | 66 | 321 | 0.0 | 0.0 | 0.00 | 0.41 | 0.41 | 99 | 1018.1 |
| 20260903123806 | 66 | 324 | 0.0 | 0.0 | 0.00 | 0.41 | 0.41 | 99 | 1018.1 |
| 20260903123306 | 66 | 317 | 0.0 | 0.0 | 0.00 | 0.41 | 0.41 | 99 | 1018.0 |
| 20260903122804 | 66 | 326 | 0.0 | 0.0 | 0.00 | 0.41 | 0.41 | 99 | 1018.2 |
| 20260903122259 | 66 | 324 | 0.0 | 0.0 | 0.00 | 0.41 | 0.41 | 99 | 1018.0 |
| 20260903121757 | 66 | 322 | 0.0 | 0.0 | 0.00 | 0.41 | 0.41 | 99 | 1018.0 |
| 20260903121253 | 66 | 322 | 0.0 | 0.0 | 0.00 | 0.41 | 0.41 | 99 | 1018.1 |
| 20260903120749 | 66 | 323 | 0.0 | 0.0 | 0.00 | 0.41 | 0.41 | 99 | 1018.1 |
| 20260903120242 | 66 | 324 | 0.0 | 0.0 | 0.00 | 0.41 | 0.41 | 99 | 1018.2 |
| 20260903115740 | 65 | 325 | 0.0 | 0.0 | 0.00 | 0.41 | 0.41 | 99 | 1018.3 |
| 20260903115236 | 65 | 320 | 0.0 | 0.0 | 0.00 | 0.41 | 0.41 | 99 | 1018.5 |
| 20260903114730 | 65 | 327 | 0.0 | 0.0 | 0.00 | 0.41 | 0.41 | 99 | 1018.7 |
| 20260903114226 | 65 | 335 | 0.0 | 0.0 | 0.00 | 0.41 | 0.41 | 99 | 1018.4 |
| 20260903113721 | 65 | 321 | 0.0 | 0.0 | 0.00 | 0.41 | 0.41 | 99 | 1018.7 |
| 20260903113217 | 65 | 323 | 0.0 | 0.0 | 0.00 | 0.41 | 0.41 | 99 | 1018.7 |
| 20260903112713 | 65 | 324 | 0.0 | 0.0 | 0.00 | 0.41 | 0.41 | 99 | 1018.5 |
| 20260903112208 | 65 | 326 | 0.0 | 0.0 | 0.00 | 0.41 | 0.41 | 99 | 1018.7 |
| 20260903111706 | 65 | 328 | 0.0 | 0.0 | 0.00 | 0.41 | 0.41 | 99 | 1018.8 |
| 20260903111202 | 65 | 324 | 0.0 | 0.0 | 0.00 | 0.41 | 0.41 | 99 | 1018.4 |
| 20260903110653 | 65 | 319 | 0.0 | 0.0 | 0.00 | 0.41 | 0.41 | 99 | 1018.7 |
| 20260903110148 | 65 | 326 | 0.0 | 0.0 | 0.00 | 0.41 | 0.41 | 99 | 1018.3 |
| 20260903105642 | 65 | 334 | 0.0 | 0.0 | 0.00 | 0.41 | 0.41 | 99 | 1018.5 |
| 20260903105138 | 65 | 325 | 0.0 | 0.0 | 0.00 | 0.41 | 0.41 | 99 | 1018.4 |
| 20260903104637 | 65 | 319 | 0.0 | 0.0 | 0.00 | 0.41 | 0.41 | 99 | 1018.5 |
| 20260903104133 | 65 | 319 | 0.0 | 0.0 | 0.05 | 0.41 | 0.41 | 99 | 1018.7 |
| 20260903103628 | 65 | 318 | 0.0 | 0.0 | 0.05 | 0.41 | 0.41 | 99 | 1018.4 |
| 20260903103125 | 65 | 320 | 0.0 | 0.0 | 0.00 | 0.40 | 0.40 | 99 | 1018.4 |
| 20260903102620 | 65 | 329 | 0.0 | 0.0 | 0.00 | 0.40 | 0.40 | 99 | 1018.5 |
| 20260903102119 | 65 | 315 | 0.0 | 0.0 | 0.00 | 0.40 | 0.40 | 99 | 1018.3 |
| 20260903101618 | 65 | 305 | 0.0 | 0.0 | 0.00 | 0.40 | 0.40 | 99 | 1018.1 |
| 20260903101114 | 65 | 318 | 0.0 | 0.0 | 0.00 | 0.40 | 0.40 | 99 | 1018.1 |
| 20260903100609 | 65 | 318 | 0.0 | 0.0 | 0.00 | 0.40 | 0.40 | 99 | 1018.0 |
| 20260903100108 | 65 | 317 | 0.0 | 0.0 | 0.00 | 0.40 | 0.40 | 99 | 1017.8 |
| 20260903095606 | 65 | 317 | 0.0 | 0.0 | 0.00 | 0.40 | 0.40 | 99 | 1017.9 |
| 20260903095106 | 65 | 318 | 0.0 | 0.0 | 0.00 | 0.40 | 0.40 | 99 | 1017.9 |
| 20260903094606 | 65 | 313 | 0.0 | 0.0 | 0.00 | 0.40 | 0.40 | 99 | 1017.8 |
| 20260903094102 | 65 | 316 | 0.0 | 0.0 | 0.00 | 0.40 | 0.40 | 99 | 1018.0 |